sensor_id;sensor_type;location;lat;lon;timestamp;P1;durP1;ratioP1;P2;durP2;ratioP2
5507;SDS011;2776;51.046;6.772;2023-03-11T00:01:38;6.33;;;1.50;;
5507;SDS011;2776;51.046;6.772;2023-03-11T00:04:06;4.03;;;1.23;;
5507;SDS011;2776;51.046;6.772;2023-03-11T00:06:33;7.30;;;1.60;;
5507;SDS011;2776;51.046;6.772;2023-03-11T00:09:00;7.20;;;1.73;;
5507;SDS011;2776;51.046;6.772;2023-03-11T00:11:27;10.00;;;2.00;;
5507;SDS011;2776;51.046;6.772;2023-03-11T00:13:54;11.53;;;1.70;;
5507;SDS011;2776;51.046;6.772;2023-03-11T00:16:20;4.03;;;1.60;;
5507;SDS011;2776;51.046;6.772;2023-03-11T00:18:48;8.27;;;2.00;;
5507;SDS011;2776;51.046;6.772;2023-03-11T00:21:17;5.60;;;1.50;;
5507;SDS011;2776;51.046;6.772;2023-03-11T00:23:45;6.50;;;1.53;;
5507;SDS011;2776;51.046;6.772;2023-03-11T00:26:12;3.97;;;1.70;;
5507;SDS011;2776;51.046;6.772;2023-03-11T00:28:39;5.33;;;1.50;;
5507;SDS011;2776;51.046;6.772;2023-03-11T00:31:05;9.40;;;1.27;;
5507;SDS011;2776;51.046;6.772;2023-03-11T00:33:32;4.53;;;1.10;;
5507;SDS011;2776;51.046;6.772;2023-03-11T00:35:59;5.20;;;1.17;;
5507;SDS011;2776;51.046;6.772;2023-03-11T00:38:27;6.40;;;1.33;;
5507;SDS011;2776;51.046;6.772;2023-03-11T00:40:54;8.33;;;1.47;;
5507;SDS011;2776;51.046;6.772;2023-03-11T00:43:21;8.47;;;1.57;;
5507;SDS011;2776;51.046;6.772;2023-03-11T00:45:47;3.13;;;1.10;;
5507;SDS011;2776;51.046;6.772;2023-03-11T00:48:14;9.57;;;1.80;;
5507;SDS011;2776;51.046;6.772;2023-03-11T00:50:41;7.53;;;1.77;;
5507;SDS011;2776;51.046;6.772;2023-03-11T00:53:08;6.70;;;1.60;;
5507;SDS011;2776;51.046;6.772;2023-03-11T00:55:37;8.33;;;1.47;;
5507;SDS011;2776;51.046;6.772;2023-03-11T00:58:04;6.20;;;1.33;;
5507;SDS011;2776;51.046;6.772;2023-03-11T01:00:31;5.67;;;1.40;;
5507;SDS011;2776;51.046;6.772;2023-03-11T01:02:59;6.57;;;1.53;;
5507;SDS011;2776;51.046;6.772;2023-03-11T01:05:27;5.70;;;1.40;;
5507;SDS011;2776;51.046;6.772;2023-03-11T01:07:55;6.37;;;1.37;;
5507;SDS011;2776;51.046;6.772;2023-03-11T01:10:22;6.97;;;1.73;;
5507;SDS011;2776;51.046;6.772;2023-03-11T01:12:50;8.43;;;1.80;;
5507;SDS011;2776;51.046;6.772;2023-03-11T01:15:19;3.60;;;1.23;;
5507;SDS011;2776;51.046;6.772;2023-03-11T01:17:47;6.33;;;1.53;;
5507;SDS011;2776;51.046;6.772;2023-03-11T01:20:14;7.50;;;1.20;;
5507;SDS011;2776;51.046;6.772;2023-03-11T01:22:41;7.23;;;1.43;;
5507;SDS011;2776;51.046;6.772;2023-03-11T01:25:09;7.80;;;2.10;;
5507;SDS011;2776;51.046;6.772;2023-03-11T01:27:37;4.40;;;1.20;;
5507;SDS011;2776;51.046;6.772;2023-03-11T01:30:06;5.80;;;1.50;;
5507;SDS011;2776;51.046;6.772;2023-03-11T01:32:34;3.80;;;1.27;;
5507;SDS011;2776;51.046;6.772;2023-03-11T01:35:00;3.43;;;1.17;;
5507;SDS011;2776;51.046;6.772;2023-03-11T01:37:27;4.53;;;1.30;;
5507;SDS011;2776;51.046;6.772;2023-03-11T01:39:54;8.43;;;1.40;;
5507;SDS011;2776;51.046;6.772;2023-03-11T01:42:21;6.30;;;1.53;;
5507;SDS011;2776;51.046;6.772;2023-03-11T01:44:48;13.03;;;1.80;;
5507;SDS011;2776;51.046;6.772;2023-03-11T01:47:33;5.57;;;1.70;;
5507;SDS011;2776;51.046;6.772;2023-03-11T01:50:02;4.37;;;1.67;;
5507;SDS011;2776;51.046;6.772;2023-03-11T01:52:31;4.17;;;1.60;;
5507;SDS011;2776;51.046;6.772;2023-03-11T01:54:58;6.10;;;1.53;;
5507;SDS011;2776;51.046;6.772;2023-03-11T01:57:25;10.60;;;2.30;;
5507;SDS011;2776;51.046;6.772;2023-03-11T01:59:54;8.37;;;1.60;;
5507;SDS011;2776;51.046;6.772;2023-03-11T02:02:24;6.17;;;1.63;;
5507;SDS011;2776;51.046;6.772;2023-03-11T02:04:57;5.90;;;1.57;;
5507;SDS011;2776;51.046;6.772;2023-03-11T02:07:26;6.37;;;1.93;;
5507;SDS011;2776;51.046;6.772;2023-03-11T02:09:53;3.17;;;1.40;;
5507;SDS011;2776;51.046;6.772;2023-03-11T02:12:20;5.93;;;1.67;;
5507;SDS011;2776;51.046;6.772;2023-03-11T02:14:47;6.00;;;1.97;;
5507;SDS011;2776;51.046;6.772;2023-03-11T02:17:17;7.20;;;1.40;;
5507;SDS011;2776;51.046;6.772;2023-03-11T02:19:48;2.37;;;1.07;;
5507;SDS011;2776;51.046;6.772;2023-03-11T02:22:28;5.93;;;1.40;;
5507;SDS011;2776;51.046;6.772;2023-03-11T02:24:58;8.67;;;1.67;;
5507;SDS011;2776;51.046;6.772;2023-03-11T02:27:31;6.27;;;1.20;;
5507;SDS011;2776;51.046;6.772;2023-03-11T02:30:01;8.10;;;1.77;;
5507;SDS011;2776;51.046;6.772;2023-03-11T02:32:28;8.37;;;1.37;;
5507;SDS011;2776;51.046;6.772;2023-03-11T02:34:55;6.20;;;1.40;;
5507;SDS011;2776;51.046;6.772;2023-03-11T02:37:22;8.63;;;1.23;;
5507;SDS011;2776;51.046;6.772;2023-03-11T02:39:49;10.30;;;1.60;;
5507;SDS011;2776;51.046;6.772;2023-03-11T02:42:18;4.63;;;1.70;;
5507;SDS011;2776;51.046;6.772;2023-03-11T02:44:52;5.47;;;1.90;;
5507;SDS011;2776;51.046;6.772;2023-03-11T02:47:23;5.57;;;1.27;;
5507;SDS011;2776;51.046;6.772;2023-03-11T02:49:51;5.73;;;1.30;;
5507;SDS011;2776;51.046;6.772;2023-03-11T02:52:20;6.47;;;1.40;;
5507;SDS011;2776;51.046;6.772;2023-03-11T02:54:47;6.97;;;1.40;;
5507;SDS011;2776;51.046;6.772;2023-03-11T02:57:14;3.03;;;0.93;;
5507;SDS011;2776;51.046;6.772;2023-03-11T02:59:40;4.63;;;1.10;;
5507;SDS011;2776;51.046;6.772;2023-03-11T03:02:08;5.10;;;1.47;;
5507;SDS011;2776;51.046;6.772;2023-03-11T03:04:35;7.20;;;1.40;;
5507;SDS011;2776;51.046;6.772;2023-03-11T03:07:02;5.23;;;1.17;;
5507;SDS011;2776;51.046;6.772;2023-03-11T03:09:29;4.43;;;1.07;;
5507;SDS011;2776;51.046;6.772;2023-03-11T03:11:55;4.80;;;1.13;;
5507;SDS011;2776;51.046;6.772;2023-03-11T03:14:22;2.43;;;1.03;;
5507;SDS011;2776;51.046;6.772;2023-03-11T03:16:49;6.83;;;1.57;;
5507;SDS011;2776;51.046;6.772;2023-03-11T03:19:17;9.13;;;1.60;;
5507;SDS011;2776;51.046;6.772;2023-03-11T03:21:44;10.00;;;1.53;;
5507;SDS011;2776;51.046;6.772;2023-03-11T03:24:10;3.13;;;1.20;;
5507;SDS011;2776;51.046;6.772;2023-03-11T03:26:37;2.13;;;1.13;;
5507;SDS011;2776;51.046;6.772;2023-03-11T03:29:04;9.57;;;1.40;;
5507;SDS011;2776;51.046;6.772;2023-03-11T03:31:31;6.47;;;1.20;;
5507;SDS011;2776;51.046;6.772;2023-03-11T03:33:58;7.97;;;1.60;;
5507;SDS011;2776;51.046;6.772;2023-03-11T03:36:26;3.33;;;1.40;;
5507;SDS011;2776;51.046;6.772;2023-03-11T03:38:53;5.83;;;2.00;;
5507;SDS011;2776;51.046;6.772;2023-03-11T03:41:20;4.73;;;1.03;;
5507;SDS011;2776;51.046;6.772;2023-03-11T03:43:47;5.13;;;1.27;;
5507;SDS011;2776;51.046;6.772;2023-03-11T03:46:14;6.73;;;1.30;;
5507;SDS011;2776;51.046;6.772;2023-03-11T03:48:41;3.83;;;1.13;;
5507;SDS011;2776;51.046;6.772;2023-03-11T03:51:09;5.83;;;1.37;;
5507;SDS011;2776;51.046;6.772;2023-03-11T03:53:39;3.43;;;0.97;;
5507;SDS011;2776;51.046;6.772;2023-03-11T03:56:07;7.90;;;1.30;;
5507;SDS011;2776;51.046;6.772;2023-03-11T03:58:35;5.27;;;1.20;;
5507;SDS011;2776;51.046;6.772;2023-03-11T04:01:02;6.57;;;1.30;;
5507;SDS011;2776;51.046;6.772;2023-03-11T04:03:30;3.13;;;1.00;;
5507;SDS011;2776;51.046;6.772;2023-03-11T04:06:04;4.53;;;1.00;;
5507;SDS011;2776;51.046;6.772;2023-03-11T04:08:31;3.43;;;0.97;;
5507;SDS011;2776;51.046;6.772;2023-03-11T04:10:59;6.50;;;1.37;;
5507;SDS011;2776;51.046;6.772;2023-03-11T04:13:26;3.90;;;1.20;;
5507;SDS011;2776;51.046;6.772;2023-03-11T04:15:53;5.47;;;1.30;;
5507;SDS011;2776;51.046;6.772;2023-03-11T04:18:19;4.93;;;1.20;;
5507;SDS011;2776;51.046;6.772;2023-03-11T04:20:46;3.43;;;1.47;;
5507;SDS011;2776;51.046;6.772;2023-03-11T04:23:13;5.33;;;1.30;;
5507;SDS011;2776;51.046;6.772;2023-03-11T04:25:40;4.80;;;1.23;;
5507;SDS011;2776;51.046;6.772;2023-03-11T04:28:08;6.97;;;1.20;;
5507;SDS011;2776;51.046;6.772;2023-03-11T04:30:35;9.50;;;1.20;;
5507;SDS011;2776;51.046;6.772;2023-03-11T04:33:03;5.30;;;1.07;;
5507;SDS011;2776;51.046;6.772;2023-03-11T04:35:30;3.13;;;1.30;;
5507;SDS011;2776;51.046;6.772;2023-03-11T04:37:56;4.47;;;1.00;;
5507;SDS011;2776;51.046;6.772;2023-03-11T04:40:24;3.27;;;1.20;;
5507;SDS011;2776;51.046;6.772;2023-03-11T04:42:52;2.80;;;1.10;;
5507;SDS011;2776;51.046;6.772;2023-03-11T04:45:20;5.03;;;1.40;;
5507;SDS011;2776;51.046;6.772;2023-03-11T04:47:47;4.33;;;1.10;;
5507;SDS011;2776;51.046;6.772;2023-03-11T04:50:14;11.57;;;1.57;;
5507;SDS011;2776;51.046;6.772;2023-03-11T04:52:42;7.37;;;1.23;;
5507;SDS011;2776;51.046;6.772;2023-03-11T04:55:08;6.37;;;1.40;;
5507;SDS011;2776;51.046;6.772;2023-03-11T04:57:37;6.93;;;2.13;;
5507;SDS011;2776;51.046;6.772;2023-03-11T05:00:04;5.70;;;1.83;;
5507;SDS011;2776;51.046;6.772;2023-03-11T05:02:37;4.90;;;1.50;;
5507;SDS011;2776;51.046;6.772;2023-03-11T05:05:05;4.40;;;1.63;;
5507;SDS011;2776;51.046;6.772;2023-03-11T05:07:34;5.70;;;1.63;;
5507;SDS011;2776;51.046;6.772;2023-03-11T05:10:01;5.30;;;1.77;;
5507;SDS011;2776;51.046;6.772;2023-03-11T05:12:27;4.07;;;1.60;;
5507;SDS011;2776;51.046;6.772;2023-03-11T05:14:54;6.47;;;1.60;;
5507;SDS011;2776;51.046;6.772;2023-03-11T05:17:21;9.77;;;1.90;;
5507;SDS011;2776;51.046;6.772;2023-03-11T05:19:50;6.40;;;2.00;;
5507;SDS011;2776;51.046;6.772;2023-03-11T05:22:18;6.30;;;1.80;;
5507;SDS011;2776;51.046;6.772;2023-03-11T05:24:44;5.33;;;1.87;;
5507;SDS011;2776;51.046;6.772;2023-03-11T05:27:12;6.90;;;3.13;;
5507;SDS011;2776;51.046;6.772;2023-03-11T05:29:41;4.70;;;2.30;;
5507;SDS011;2776;51.046;6.772;2023-03-11T05:32:09;7.00;;;1.93;;
5507;SDS011;2776;51.046;6.772;2023-03-11T05:34:36;7.20;;;2.40;;
5507;SDS011;2776;51.046;6.772;2023-03-11T05:37:04;6.53;;;2.07;;
5507;SDS011;2776;51.046;6.772;2023-03-11T05:39:31;9.57;;;2.67;;
5507;SDS011;2776;51.046;6.772;2023-03-11T05:41:58;5.17;;;2.23;;
5507;SDS011;2776;51.046;6.772;2023-03-11T05:44:25;8.90;;;1.90;;
5507;SDS011;2776;51.046;6.772;2023-03-11T05:46:51;6.00;;;1.90;;
5507;SDS011;2776;51.046;6.772;2023-03-11T05:49:18;8.10;;;1.70;;
5507;SDS011;2776;51.046;6.772;2023-03-11T05:51:45;7.00;;;1.90;;
5507;SDS011;2776;51.046;6.772;2023-03-11T05:54:13;6.03;;;1.77;;
5507;SDS011;2776;51.046;6.772;2023-03-11T05:56:40;6.13;;;1.93;;
5507;SDS011;2776;51.046;6.772;2023-03-11T05:59:08;6.00;;;1.90;;
5507;SDS011;2776;51.046;6.772;2023-03-11T06:01:35;8.77;;;2.10;;
5507;SDS011;2776;51.046;6.772;2023-03-11T06:04:02;6.50;;;2.03;;
5507;SDS011;2776;51.046;6.772;2023-03-11T06:06:29;4.73;;;1.90;;
5507;SDS011;2776;51.046;6.772;2023-03-11T06:08:56;4.00;;;1.83;;
5507;SDS011;2776;51.046;6.772;2023-03-11T06:11:24;4.70;;;1.93;;
5507;SDS011;2776;51.046;6.772;2023-03-11T06:13:51;4.50;;;1.63;;
5507;SDS011;2776;51.046;6.772;2023-03-11T06:16:19;9.73;;;2.03;;
5507;SDS011;2776;51.046;6.772;2023-03-11T06:18:46;11.27;;;2.10;;
5507;SDS011;2776;51.046;6.772;2023-03-11T06:21:14;6.17;;;2.33;;
5507;SDS011;2776;51.046;6.772;2023-03-11T06:23:42;7.90;;;2.20;;
5507;SDS011;2776;51.046;6.772;2023-03-11T06:26:09;3.97;;;1.97;;
5507;SDS011;2776;51.046;6.772;2023-03-11T06:28:40;6.60;;;1.70;;
5507;SDS011;2776;51.046;6.772;2023-03-11T06:31:07;7.53;;;1.93;;
5507;SDS011;2776;51.046;6.772;2023-03-11T06:33:34;4.97;;;2.10;;
5507;SDS011;2776;51.046;6.772;2023-03-11T06:36:02;8.43;;;1.83;;
5507;SDS011;2776;51.046;6.772;2023-03-11T06:38:30;4.47;;;1.80;;
5507;SDS011;2776;51.046;6.772;2023-03-11T06:40:57;5.17;;;1.80;;
5507;SDS011;2776;51.046;6.772;2023-03-11T06:43:25;7.60;;;1.73;;
5507;SDS011;2776;51.046;6.772;2023-03-11T06:45:53;4.27;;;1.40;;
5507;SDS011;2776;51.046;6.772;2023-03-11T06:48:20;5.00;;;1.90;;
5507;SDS011;2776;51.046;6.772;2023-03-11T06:50:52;5.53;;;1.70;;
5507;SDS011;2776;51.046;6.772;2023-03-11T06:53:20;4.10;;;1.77;;
5507;SDS011;2776;51.046;6.772;2023-03-11T06:55:56;2.40;;;1.50;;
5507;SDS011;2776;51.046;6.772;2023-03-11T06:58:24;3.70;;;1.20;;
5507;SDS011;2776;51.046;6.772;2023-03-11T07:00:51;2.73;;;1.30;;
5507;SDS011;2776;51.046;6.772;2023-03-11T07:03:19;7.43;;;1.57;;
5507;SDS011;2776;51.046;6.772;2023-03-11T07:05:48;3.77;;;1.87;;
5507;SDS011;2776;51.046;6.772;2023-03-11T07:08:16;6.77;;;1.57;;
5507;SDS011;2776;51.046;6.772;2023-03-11T07:10:43;8.23;;;1.43;;
5507;SDS011;2776;51.046;6.772;2023-03-11T07:13:10;6.83;;;2.03;;
5507;SDS011;2776;51.046;6.772;2023-03-11T07:15:37;5.43;;;1.50;;
5507;SDS011;2776;51.046;6.772;2023-03-11T07:18:04;5.03;;;1.50;;
5507;SDS011;2776;51.046;6.772;2023-03-11T07:20:32;3.30;;;1.73;;
5507;SDS011;2776;51.046;6.772;2023-03-11T07:22:59;5.77;;;2.13;;
5507;SDS011;2776;51.046;6.772;2023-03-11T07:25:25;6.93;;;1.63;;
5507;SDS011;2776;51.046;6.772;2023-03-11T07:27:52;4.03;;;1.97;;
5507;SDS011;2776;51.046;6.772;2023-03-11T07:30:19;6.03;;;1.73;;
5507;SDS011;2776;51.046;6.772;2023-03-11T07:32:46;5.07;;;1.80;;
5507;SDS011;2776;51.046;6.772;2023-03-11T07:35:12;7.20;;;2.70;;
5507;SDS011;2776;51.046;6.772;2023-03-11T07:37:40;3.37;;;1.93;;
5507;SDS011;2776;51.046;6.772;2023-03-11T07:40:08;5.70;;;3.80;;
5507;SDS011;2776;51.046;6.772;2023-03-11T07:42:35;5.53;;;2.03;;
5507;SDS011;2776;51.046;6.772;2023-03-11T07:45:02;5.57;;;2.50;;
5507;SDS011;2776;51.046;6.772;2023-03-11T07:47:29;6.27;;;2.40;;
5507;SDS011;2776;51.046;6.772;2023-03-11T07:49:55;6.40;;;2.50;;
5507;SDS011;2776;51.046;6.772;2023-03-11T07:52:22;6.30;;;1.97;;
5507;SDS011;2776;51.046;6.772;2023-03-11T07:54:50;8.30;;;2.27;;
5507;SDS011;2776;51.046;6.772;2023-03-11T07:57:17;6.50;;;2.30;;
5507;SDS011;2776;51.046;6.772;2023-03-11T07:59:44;7.17;;;2.07;;
5507;SDS011;2776;51.046;6.772;2023-03-11T08:02:10;6.07;;;2.50;;
5507;SDS011;2776;51.046;6.772;2023-03-11T08:04:37;5.07;;;2.50;;
5507;SDS011;2776;51.046;6.772;2023-03-11T08:07:04;5.87;;;2.00;;
5507;SDS011;2776;51.046;6.772;2023-03-11T08:09:31;6.30;;;2.27;;
5507;SDS011;2776;51.046;6.772;2023-03-11T08:12:00;9.90;;;2.73;;
5507;SDS011;2776;51.046;6.772;2023-03-11T08:14:27;8.43;;;2.23;;
5507;SDS011;2776;51.046;6.772;2023-03-11T08:16:54;7.97;;;2.63;;
5507;SDS011;2776;51.046;6.772;2023-03-11T08:19:20;7.47;;;2.33;;
5507;SDS011;2776;51.046;6.772;2023-03-11T08:21:47;7.60;;;2.77;;
5507;SDS011;2776;51.046;6.772;2023-03-11T08:24:14;4.90;;;2.10;;
5507;SDS011;2776;51.046;6.772;2023-03-11T08:26:40;6.60;;;2.53;;
5507;SDS011;2776;51.046;6.772;2023-03-11T08:29:09;7.70;;;2.20;;
5507;SDS011;2776;51.046;6.772;2023-03-11T08:31:35;4.73;;;2.00;;
5507;SDS011;2776;51.046;6.772;2023-03-11T08:34:03;6.93;;;1.80;;
5507;SDS011;2776;51.046;6.772;2023-03-11T08:36:31;3.40;;;1.77;;
5507;SDS011;2776;51.046;6.772;2023-03-11T08:38:58;4.07;;;1.70;;
5507;SDS011;2776;51.046;6.772;2023-03-11T08:41:26;4.37;;;1.80;;
5507;SDS011;2776;51.046;6.772;2023-03-11T08:43:53;7.63;;;1.80;;
5507;SDS011;2776;51.046;6.772;2023-03-11T08:46:21;6.87;;;1.80;;
5507;SDS011;2776;51.046;6.772;2023-03-11T08:48:50;4.37;;;1.80;;
5507;SDS011;2776;51.046;6.772;2023-03-11T08:51:17;6.10;;;1.80;;
5507;SDS011;2776;51.046;6.772;2023-03-11T08:53:44;4.10;;;1.70;;
5507;SDS011;2776;51.046;6.772;2023-03-11T08:56:12;3.00;;;1.47;;
5507;SDS011;2776;51.046;6.772;2023-03-11T08:58:39;6.50;;;2.53;;
5507;SDS011;2776;51.046;6.772;2023-03-11T09:01:05;4.03;;;1.60;;
5507;SDS011;2776;51.046;6.772;2023-03-11T09:03:35;3.53;;;1.67;;
5507;SDS011;2776;51.046;6.772;2023-03-11T09:06:02;2.60;;;1.60;;
5507;SDS011;2776;51.046;6.772;2023-03-11T09:08:30;8.43;;;1.83;;
5507;SDS011;2776;51.046;6.772;2023-03-11T09:10:57;4.63;;;1.53;;
5507;SDS011;2776;51.046;6.772;2023-03-11T09:13:24;4.40;;;1.60;;
5507;SDS011;2776;51.046;6.772;2023-03-11T09:15:51;2.73;;;1.30;;
5507;SDS011;2776;51.046;6.772;2023-03-11T09:18:19;5.07;;;1.47;;
5507;SDS011;2776;51.046;6.772;2023-03-11T09:20:47;3.67;;;1.57;;
5507;SDS011;2776;51.046;6.772;2023-03-11T09:23:14;2.63;;;1.37;;
5507;SDS011;2776;51.046;6.772;2023-03-11T09:25:42;5.97;;;1.43;;
5507;SDS011;2776;51.046;6.772;2023-03-11T09:28:09;5.40;;;1.30;;
5507;SDS011;2776;51.046;6.772;2023-03-11T09:30:36;5.97;;;2.23;;
5507;SDS011;2776;51.046;6.772;2023-03-11T09:33:02;2.70;;;1.70;;
5507;SDS011;2776;51.046;6.772;2023-03-11T09:35:29;2.23;;;1.40;;
5507;SDS011;2776;51.046;6.772;2023-03-11T09:37:57;3.20;;;1.73;;
5507;SDS011;2776;51.046;6.772;2023-03-11T09:40:25;4.43;;;1.30;;
5507;SDS011;2776;51.046;6.772;2023-03-11T09:43:00;4.13;;;1.20;;
5507;SDS011;2776;51.046;6.772;2023-03-11T09:45:34;2.80;;;1.00;;
5507;SDS011;2776;51.046;6.772;2023-03-11T09:48:06;0.70;;;0.70;;
5507;SDS011;2776;51.046;6.772;2023-03-11T09:50:42;5.73;;;2.63;;
5507;SDS011;2776;51.046;6.772;2023-03-11T09:53:24;3.50;;;1.40;;
5507;SDS011;2776;51.046;6.772;2023-03-11T09:55:58;5.10;;;1.27;;
5507;SDS011;2776;51.046;6.772;2023-03-11T09:58:30;3.73;;;1.47;;
5507;SDS011;2776;51.046;6.772;2023-03-11T10:01:02;3.70;;;2.27;;
5507;SDS011;2776;51.046;6.772;2023-03-11T10:03:39;5.40;;;1.63;;
5507;SDS011;2776;51.046;6.772;2023-03-11T10:06:10;3.87;;;1.23;;
5507;SDS011;2776;51.046;6.772;2023-03-11T10:08:43;2.80;;;1.10;;
5507;SDS011;2776;51.046;6.772;2023-03-11T10:11:15;1.83;;;1.10;;
5507;SDS011;2776;51.046;6.772;2023-03-11T10:13:54;1.97;;;1.10;;
5507;SDS011;2776;51.046;6.772;2023-03-11T10:16:31;3.33;;;0.90;;
5507;SDS011;2776;51.046;6.772;2023-03-11T10:19:04;2.80;;;0.97;;
5507;SDS011;2776;51.046;6.772;2023-03-11T10:21:42;5.70;;;2.77;;
5507;SDS011;2776;51.046;6.772;2023-03-11T10:24:22;4.57;;;2.57;;
5507;SDS011;2776;51.046;6.772;2023-03-11T10:27:13;2.77;;;1.10;;
5507;SDS011;2776;51.046;6.772;2023-03-11T10:29:44;3.13;;;1.20;;
5507;SDS011;2776;51.046;6.772;2023-03-11T10:32:17;4.90;;;1.53;;
5507;SDS011;2776;51.046;6.772;2023-03-11T10:34:50;3.27;;;1.20;;
5507;SDS011;2776;51.046;6.772;2023-03-11T10:37:22;5.60;;;1.87;;
5507;SDS011;2776;51.046;6.772;2023-03-11T10:39:52;2.30;;;1.10;;
5507;SDS011;2776;51.046;6.772;2023-03-11T10:42:20;2.60;;;0.80;;
5507;SDS011;2776;51.046;6.772;2023-03-11T10:44:49;2.90;;;1.30;;
5507;SDS011;2776;51.046;6.772;2023-03-11T10:47:16;2.03;;;0.83;;
5507;SDS011;2776;51.046;6.772;2023-03-11T10:49:44;2.27;;;0.87;;
5507;SDS011;2776;51.046;6.772;2023-03-11T10:52:11;3.43;;;1.10;;
5507;SDS011;2776;51.046;6.772;2023-03-11T10:54:39;3.10;;;0.80;;
5507;SDS011;2776;51.046;6.772;2023-03-11T10:57:20;4.50;;;2.10;;
5507;SDS011;2776;51.046;6.772;2023-03-11T10:59:50;3.03;;;1.47;;
5507;SDS011;2776;51.046;6.772;2023-03-11T11:02:20;6.63;;;1.50;;
5507;SDS011;2776;51.046;6.772;2023-03-11T11:04:50;2.40;;;0.80;;
5507;SDS011;2776;51.046;6.772;2023-03-11T11:07:31;3.43;;;0.93;;
5507;SDS011;2776;51.046;6.772;2023-03-11T11:10:13;2.17;;;1.20;;
5507;SDS011;2776;51.046;6.772;2023-03-11T11:12:56;1.57;;;1.00;;
5507;SDS011;2776;51.046;6.772;2023-03-11T11:15:24;2.47;;;0.77;;
5507;SDS011;2776;51.046;6.772;2023-03-11T11:17:55;3.83;;;1.90;;
5507;SDS011;2776;51.046;6.772;2023-03-11T11:20:24;7.90;;;1.40;;
5507;SDS011;2776;51.046;6.772;2023-03-11T11:22:52;4.27;;;1.90;;
5507;SDS011;2776;51.046;6.772;2023-03-11T11:25:25;3.93;;;1.33;;
5507;SDS011;2776;51.046;6.772;2023-03-11T11:27:56;4.67;;;1.10;;
5507;SDS011;2776;51.046;6.772;2023-03-11T11:30:24;2.23;;;1.20;;
5507;SDS011;2776;51.046;6.772;2023-03-11T11:32:52;2.37;;;0.93;;
5507;SDS011;2776;51.046;6.772;2023-03-11T11:35:19;3.10;;;1.30;;
5507;SDS011;2776;51.046;6.772;2023-03-11T11:37:48;2.50;;;0.90;;
5507;SDS011;2776;51.046;6.772;2023-03-11T11:40:24;4.83;;;1.00;;
5507;SDS011;2776;51.046;6.772;2023-03-11T11:42:53;7.07;;;0.90;;
5507;SDS011;2776;51.046;6.772;2023-03-11T11:45:33;1.87;;;1.00;;
5507;SDS011;2776;51.046;6.772;2023-03-11T11:48:04;2.47;;;0.70;;
5507;SDS011;2776;51.046;6.772;2023-03-11T11:50:39;4.97;;;1.23;;
5507;SDS011;2776;51.046;6.772;2023-03-11T11:53:11;2.37;;;0.93;;
5507;SDS011;2776;51.046;6.772;2023-03-11T11:55:47;3.83;;;1.07;;
5507;SDS011;2776;51.046;6.772;2023-03-11T11:58:17;4.90;;;0.90;;
5507;SDS011;2776;51.046;6.772;2023-03-11T12:00:47;2.43;;;0.90;;
5507;SDS011;2776;51.046;6.772;2023-03-11T12:03:37;6.60;;;0.97;;
5507;SDS011;2776;51.046;6.772;2023-03-11T12:06:21;3.17;;;0.80;;
5507;SDS011;2776;51.046;6.772;2023-03-11T12:08:57;2.87;;;0.83;;
5507;SDS011;2776;51.046;6.772;2023-03-11T12:11:35;0.70;;;0.57;;
5507;SDS011;2776;51.046;6.772;2023-03-11T12:14:09;2.53;;;0.70;;
5507;SDS011;2776;51.046;6.772;2023-03-11T12:16:45;4.37;;;1.07;;
5507;SDS011;2776;51.046;6.772;2023-03-11T12:19:19;2.60;;;0.90;;
5507;SDS011;2776;51.046;6.772;2023-03-11T12:21:59;2.93;;;0.83;;
5507;SDS011;2776;51.046;6.772;2023-03-11T12:24:55;2.83;;;0.70;;
5507;SDS011;2776;51.046;6.772;2023-03-11T12:27:36;0.80;;;0.70;;
5507;SDS011;2776;51.046;6.772;2023-03-11T12:30:13;3.53;;;0.90;;
5507;SDS011;2776;51.046;6.772;2023-03-11T12:32:43;2.37;;;0.80;;
5507;SDS011;2776;51.046;6.772;2023-03-11T12:35:18;2.60;;;0.77;;
5507;SDS011;2776;51.046;6.772;2023-03-11T12:37:56;3.20;;;0.80;;
5507;SDS011;2776;51.046;6.772;2023-03-11T12:49:34;1.70;;;0.90;;
5507;SDS011;2776;51.046;6.772;2023-03-11T12:52:06;1.80;;;1.00;;
5507;SDS011;2776;51.046;6.772;2023-03-11T12:54:43;2.87;;;1.30;;
5507;SDS011;2776;51.046;6.772;2023-03-11T12:57:14;4.87;;;1.33;;
5507;SDS011;2776;51.046;6.772;2023-03-11T13:00:11;2.83;;;1.00;;
5507;SDS011;2776;51.046;6.772;2023-03-11T13:03:09;4.50;;;1.10;;
5507;SDS011;2776;51.046;6.772;2023-03-11T13:05:53;4.63;;;0.93;;
5507;SDS011;2776;51.046;6.772;2023-03-11T13:08:26;2.73;;;1.17;;
5507;SDS011;2776;51.046;6.772;2023-03-11T13:10:56;3.93;;;1.20;;
5507;SDS011;2776;51.046;6.772;2023-03-11T13:13:35;3.10;;;1.23;;
5507;SDS011;2776;51.046;6.772;2023-03-11T13:22:02;1.57;;;0.70;;
5507;SDS011;2776;51.046;6.772;2023-03-11T13:24:40;4.17;;;1.17;;
5507;SDS011;2776;51.046;6.772;2023-03-11T13:27:19;2.87;;;1.07;;
5507;SDS011;2776;51.046;6.772;2023-03-11T13:30:03;1.93;;;1.03;;
5507;SDS011;2776;51.046;6.772;2023-03-11T13:35:31;1.87;;;1.33;;
5507;SDS011;2776;51.046;6.772;2023-03-11T13:38:15;2.80;;;0.87;;
5507;SDS011;2776;51.046;6.772;2023-03-11T13:40:59;3.83;;;0.77;;
5507;SDS011;2776;51.046;6.772;2023-03-11T13:43:27;2.30;;;1.00;;
5507;SDS011;2776;51.046;6.772;2023-03-11T13:45:55;3.03;;;1.00;;
5507;SDS011;2776;51.046;6.772;2023-03-11T13:48:27;3.13;;;0.90;;
5507;SDS011;2776;51.046;6.772;2023-03-11T13:50:58;3.07;;;0.90;;
5507;SDS011;2776;51.046;6.772;2023-03-11T13:53:33;5.13;;;1.23;;
5507;SDS011;2776;51.046;6.772;2023-03-11T13:56:04;3.97;;;1.10;;
5507;SDS011;2776;51.046;6.772;2023-03-11T13:58:41;2.43;;;1.10;;
5507;SDS011;2776;51.046;6.772;2023-03-11T14:01:09;4.93;;;1.30;;
5507;SDS011;2776;51.046;6.772;2023-03-11T14:03:41;3.23;;;0.93;;
5507;SDS011;2776;51.046;6.772;2023-03-11T14:06:10;2.87;;;0.80;;
5507;SDS011;2776;51.046;6.772;2023-03-11T14:08:40;3.07;;;1.20;;
5507;SDS011;2776;51.046;6.772;2023-03-11T14:11:14;4.30;;;1.07;;
5507;SDS011;2776;51.046;6.772;2023-03-11T14:13:42;2.97;;;1.03;;
5507;SDS011;2776;51.046;6.772;2023-03-11T14:16:12;3.57;;;1.03;;
5507;SDS011;2776;51.046;6.772;2023-03-11T14:18:42;4.13;;;1.30;;
5507;SDS011;2776;51.046;6.772;2023-03-11T14:21:11;1.90;;;0.90;;
5507;SDS011;2776;51.046;6.772;2023-03-11T14:23:42;7.50;;;1.17;;
5507;SDS011;2776;51.046;6.772;2023-03-11T14:26:11;2.57;;;0.97;;
5507;SDS011;2776;51.046;6.772;2023-03-11T14:28:41;4.93;;;1.00;;
5507;SDS011;2776;51.046;6.772;2023-03-11T14:31:20;1.43;;;1.00;;
5507;SDS011;2776;51.046;6.772;2023-03-11T14:33:53;3.23;;;1.20;;
5507;SDS011;2776;51.046;6.772;2023-03-11T14:36:20;3.67;;;1.40;;
5507;SDS011;2776;51.046;6.772;2023-03-11T14:38:48;3.67;;;1.00;;
5507;SDS011;2776;51.046;6.772;2023-03-11T14:41:15;5.07;;;1.33;;
5507;SDS011;2776;51.046;6.772;2023-03-11T14:43:43;4.40;;;1.10;;
5507;SDS011;2776;51.046;6.772;2023-03-11T14:46:14;3.03;;;0.90;;
5507;SDS011;2776;51.046;6.772;2023-03-11T14:48:47;1.67;;;0.70;;
5507;SDS011;2776;51.046;6.772;2023-03-11T14:51:17;4.53;;;1.03;;
5507;SDS011;2776;51.046;6.772;2023-03-11T14:53:51;3.57;;;0.90;;
5507;SDS011;2776;51.046;6.772;2023-03-11T14:56:27;3.03;;;1.20;;
5507;SDS011;2776;51.046;6.772;2023-03-11T14:58:58;2.17;;;1.20;;
5507;SDS011;2776;51.046;6.772;2023-03-11T15:01:30;4.77;;;1.30;;
5507;SDS011;2776;51.046;6.772;2023-03-11T15:04:01;4.20;;;1.40;;
5507;SDS011;2776;51.046;6.772;2023-03-11T15:06:32;3.33;;;1.23;;
5507;SDS011;2776;51.046;6.772;2023-03-11T15:09:02;2.40;;;1.00;;
5507;SDS011;2776;51.046;6.772;2023-03-11T15:11:42;2.90;;;1.10;;
5507;SDS011;2776;51.046;6.772;2023-03-11T15:14:15;4.57;;;1.07;;
5507;SDS011;2776;51.046;6.772;2023-03-11T15:16:45;4.00;;;1.40;;
5507;SDS011;2776;51.046;6.772;2023-03-11T15:19:23;2.40;;;1.07;;
5507;SDS011;2776;51.046;6.772;2023-03-11T15:21:59;2.20;;;1.17;;
5507;SDS011;2776;51.046;6.772;2023-03-11T15:24:32;4.10;;;1.13;;
5507;SDS011;2776;51.046;6.772;2023-03-11T15:27:00;7.23;;;1.20;;
5507;SDS011;2776;51.046;6.772;2023-03-11T15:29:29;2.10;;;1.27;;
5507;SDS011;2776;51.046;6.772;2023-03-11T15:31:57;5.63;;;1.30;;
5507;SDS011;2776;51.046;6.772;2023-03-11T15:34:27;4.50;;;1.10;;
5507;SDS011;2776;51.046;6.772;2023-03-11T15:37:01;2.80;;;1.07;;
5507;SDS011;2776;51.046;6.772;2023-03-11T15:39:48;5.23;;;1.10;;
5507;SDS011;2776;51.046;6.772;2023-03-11T15:42:17;3.23;;;1.10;;
5507;SDS011;2776;51.046;6.772;2023-03-11T15:45:01;3.07;;;0.93;;
5507;SDS011;2776;51.046;6.772;2023-03-11T15:47:33;4.87;;;0.83;;
5507;SDS011;2776;51.046;6.772;2023-03-11T15:50:01;3.77;;;1.20;;